createdAt,value
2022-08-02T00:02:14.194Z,99.99
2022-08-02T00:06:15.814Z,99.99
2022-08-02T00:10:17.685Z,99.99
2022-08-02T00:14:19.241Z,99.99
2022-08-02T00:18:20.899Z,99.99
2022-08-02T00:22:22.472Z,99.99
2022-08-02T00:26:24.046Z,99.99
2022-08-02T00:30:25.805Z,99.99
2022-08-02T00:34:32.834Z,99.99
2022-08-02T00:38:36.823Z,99.99
2022-08-02T00:42:39.958Z,99.99
2022-08-02T00:46:42.234Z,99.99
2022-08-02T00:50:43.822Z,99.99
2022-08-02T00:54:45.411Z,99.99
2022-08-02T00:58:46.979Z,99.99
2022-08-02T01:02:48.712Z,99.99
2022-08-02T01:06:50.253Z,99.99
2022-08-02T01:10:51.883Z,99.99
2022-08-02T01:14:56.819Z,99.99
2022-08-02T01:19:08.297Z,99.99
2022-08-02T01:23:53.825Z,99.99
2022-08-02T01:28:34.387Z,99.99
2022-08-02T01:32:43.055Z,99.99
2022-08-02T01:36:49.455Z,99.99
2022-08-02T01:40:53.509Z,99.99
2022-08-02T01:44:56.110Z,99.99
2022-08-02T01:49:01.501Z,99.99
2022-08-02T01:53:06.771Z,99.99
2022-08-02T01:57:12.024Z,99.99
2022-08-02T02:01:18.568Z,99.99
2022-08-02T02:05:22.823Z,99.99
2022-08-02T02:09:29.651Z,99.99
2022-08-02T02:13:33.564Z,99.99
2022-08-02T02:17:52.791Z,99.99
2022-08-02T02:21:58.281Z,99.99
2022-08-02T02:26:03.878Z,99.99
2022-08-02T02:30:06.892Z,99.99
2022-08-02T02:34:25.437Z,99.99
2022-08-02T02:38:31.211Z,99.99
2022-08-02T02:42:34.612Z,99.99
2022-08-02T02:46:36.946Z,99.99
2022-08-02T02:50:39.238Z,99.99
2022-08-02T02:54:42.747Z,99.99
2022-08-02T02:58:45.534Z,99.99
2022-08-02T03:02:47.285Z,99.99
2022-08-02T03:06:49.067Z,99.99
2022-08-02T03:10:50.779Z,99.99
2022-08-02T03:14:52.388Z,99.99
2022-08-02T03:18:55.599Z,99.99
2022-08-02T03:22:57.179Z,99.99
2022-08-02T03:26:58.783Z,99.99
2022-08-02T03:31:00.852Z,99.99
2022-08-02T03:35:03.179Z,99.99
2022-08-02T03:39:06.437Z,99.99
2022-08-02T03:43:09.441Z,99.99
2022-08-02T03:47:12.591Z,99.99
2022-08-02T03:51:14.681Z,99.99
2022-08-02T03:55:16.253Z,99.99
2022-08-02T03:59:17.814Z,99.99
2022-08-02T04:03:19.988Z,99.99
2022-08-02T04:08:33.336Z,99.99
2022-08-02T04:11:43.312Z,99.99
2022-08-02T04:15:45.779Z,99.99
2022-08-02T04:19:54.948Z,99.99
2022-08-02T04:23:57.207Z,99.99
2022-08-02T04:28:17.482Z,99.99
2022-08-02T04:32:21.986Z,99.99
2022-08-02T04:36:31.435Z,99.99
2022-08-02T04:40:33.569Z,99.99
2022-08-02T04:44:35.525Z,99.99
2022-08-02T04:48:37.155Z,99.99
2022-08-02T04:52:40.747Z,99.99
2022-08-02T04:56:45.603Z,99.99
2022-08-02T05:00:47.365Z,99.99
2022-08-02T05:04:49.002Z,99.99
2022-08-02T05:08:52.817Z,99.99
2022-08-02T05:12:55.027Z,99.99
2022-08-02T05:16:56.607Z,99.99
2022-08-02T05:20:58.477Z,99.99
2022-08-02T05:25:00.119Z,99.99
2022-08-02T05:29:01.692Z,99.99
2022-08-02T05:33:04.642Z,99.99
2022-08-02T05:37:08.979Z,99.99
2022-08-02T05:41:11.630Z,99.99
2022-08-02T05:45:13.277Z,99.99
2022-08-02T05:49:15.010Z,99.99
2022-08-02T05:53:33.243Z,99.99
2022-08-02T05:58:01.568Z,99.99
2022-08-02T06:02:10.463Z,99.99
2022-08-02T06:06:16.159Z,99.99
2022-08-02T06:10:21.502Z,99.99
2022-08-02T06:14:23.319Z,99.99
2022-08-02T06:18:33.574Z,99.99
2022-08-02T06:22:37.222Z,99.99
2022-08-02T06:26:39.432Z,99.99
2022-08-02T06:30:42.801Z,99.99
2022-08-02T06:34:44.789Z,99.99
2022-08-02T06:38:53.057Z,99.99
2022-08-02T06:43:17.704Z,99.99
2022-08-02T06:47:19.280Z,99.99
2022-08-02T06:51:21.177Z,99.99
2022-08-02T06:55:22.927Z,99.99
2022-08-02T06:59:24.486Z,99.99
2022-08-02T07:03:26.133Z,99.99
2022-08-02T07:07:28.186Z,99.99
2022-08-02T07:11:29.739Z,99.99
2022-08-02T07:15:31.407Z,99.99
2022-08-02T07:19:37.442Z,99.99
2022-08-02T07:23:39.824Z,99.99
2022-08-02T07:27:41.591Z,99.99
2022-08-02T07:31:43.209Z,99.99
2022-08-02T07:35:44.987Z,99.99
2022-08-02T07:39:49.913Z,99.99
2022-08-02T07:43:51.806Z,99.99
2022-08-02T07:47:53.392Z,99.99
2022-08-02T07:51:55.262Z,99.99
2022-08-02T07:55:56.878Z,99.99
2022-08-02T07:59:58.723Z,99.99
2022-08-02T08:04:00.298Z,99.99
2022-08-02T08:08:04.327Z,99.99
2022-08-02T08:12:06.742Z,99.99
2022-08-02T08:16:08.327Z,99.99
2022-08-02T08:20:15.389Z,97.28
2022-08-02T08:24:17.384Z,97.04
2022-08-02T08:28:18.970Z,96.74
2022-08-02T08:32:21.042Z,95.15
2022-08-02T08:36:23.565Z,92.62
2022-08-02T08:40:25.911Z,93.37
2022-08-02T08:44:28.324Z,90.59
2022-08-02T08:48:33.042Z,88.81
2022-08-02T08:52:42.179Z,85.00
2022-08-02T08:56:45.090Z,84.66
2022-08-02T09:00:47.118Z,84.06
2022-08-02T09:04:54.616Z,83.17
2022-08-02T09:08:56.745Z,82.64
2022-08-02T09:13:43.449Z,82.04
2022-08-02T09:17:53.224Z,82.83
2022-08-02T09:22:03.815Z,82.79
2022-08-02T09:26:10.168Z,82.20
2022-08-02T09:30:14.341Z,81.96
2022-08-02T09:34:19.907Z,81.33
2022-08-02T09:38:21.994Z,81.33
2022-08-02T09:42:23.650Z,80.74
2022-08-02T09:46:37.403Z,81.13
2022-08-02T09:50:41.294Z,79.71
2022-08-02T09:54:43.610Z,79.80
2022-08-02T09:58:45.882Z,80.10
2022-08-02T10:03:16.032Z,79.86
2022-08-02T10:07:24.117Z,78.98
2022-08-02T10:11:27.996Z,78.94
2022-08-02T10:15:29.652Z,79.24
2022-08-02T10:20:00.741Z,78.90
2022-08-02T10:23:54.201Z,79.20
2022-08-02T10:28:05.123Z,78.07
2022-08-02T10:32:11.227Z,78.56
2022-08-02T10:36:14.297Z,78.47
2022-08-02T10:40:26.691Z,78.72
2022-08-02T10:44:31.357Z,78.92
2022-08-02T10:49:18.469Z,77.80
2022-08-02T10:53:30.600Z,77.31
2022-08-02T10:57:33.841Z,76.28
2022-08-02T11:01:44.425Z,77.08
2022-08-02T11:06:04.581Z,76.28
2022-08-02T11:10:25.058Z,76.18
2022-08-02T11:14:26.709Z,75.76
2022-08-02T11:18:46.700Z,75.23
2022-08-02T11:22:51.191Z,75.42
2022-08-02T11:26:53.012Z,74.80
2022-08-02T11:31:02.659Z,74.21
2022-08-02T11:35:04.660Z,74.27
2022-08-02T11:39:10.822Z,73.77
2022-08-02T11:43:23.230Z,73.74
2022-08-02T11:47:24.982Z,73.64
2022-08-02T11:51:26.584Z,73.02
2022-08-02T11:55:29.603Z,73.11
2022-08-02T11:59:31.257Z,72.30
2022-08-02T12:03:39.459Z,72.06
2022-08-02T12:07:46.211Z,72.85
2022-08-02T12:11:51.335Z,71.53
2022-08-02T12:15:53.031Z,71.77
2022-08-02T12:19:54.763Z,71.64
2022-08-02T12:23:59.723Z,71.24
2022-08-02T12:28:20.351Z,71.04
2022-08-02T12:32:25.217Z,71.04
2022-08-02T12:36:30.619Z,69.84
2022-08-02T12:40:33.593Z,69.84
2022-08-02T12:44:38.532Z,69.54
2022-08-02T12:48:56.493Z,69.51
2022-08-02T12:53:15.794Z,69.41
2022-08-02T12:57:19.502Z,69.60
2022-08-02T13:01:26.776Z,68.88
2022-08-02T13:05:29.930Z,68.88
2022-08-02T13:09:51.496Z,68.55
2022-08-02T13:14:04.924Z,68.72
2022-08-02T13:18:06.902Z,68.23
2022-08-02T13:22:10.815Z,68.91
2022-08-02T13:26:12.510Z,68.39
2022-08-02T13:30:14.426Z,68.19
2022-08-02T13:34:16.652Z,67.58
2022-08-02T13:38:23.191Z,67.80
2022-08-02T13:42:26.467Z,66.99
2022-08-02T13:46:28.568Z,67.09
2022-08-02T13:50:31.388Z,67.38
2022-08-02T13:54:33.170Z,66.66
2022-08-02T13:58:34.862Z,65.95
2022-08-02T14:02:40.318Z,65.14
2022-08-02T14:06:42.301Z,65.04
2022-08-02T14:10:44.418Z,65.30
2022-08-02T14:14:46.036Z,65.00
2022-08-02T14:18:47.586Z,64.81
2022-08-02T14:22:49.716Z,64.09
2022-08-02T14:26:51.370Z,64.39
2022-08-02T14:30:52.924Z,64.26
2022-08-02T14:34:54.482Z,64.29
2022-08-02T14:38:56.768Z,64.00
2022-08-02T14:42:59.532Z,64.03
2022-08-02T14:47:01.181Z,63.73
2022-08-02T14:51:02.841Z,63.34
2022-08-02T14:55:05.566Z,63.51
2022-08-02T14:59:07.270Z,63.21
2022-08-02T15:03:10.020Z,63.02
2022-08-02T15:07:13.351Z,62.63
2022-08-02T15:11:15.025Z,62.24
2022-08-02T15:15:16.664Z,62.02
2022-08-02T15:19:18.221Z,62.38
2022-08-02T15:23:21.646Z,61.66
2022-08-02T15:27:23.334Z,61.11
2022-08-02T15:31:33.181Z,61.50
2022-08-02T15:35:35.170Z,61.11
2022-08-02T15:39:37.071Z,60.91
2022-08-02T15:44:00.083Z,60.65
2022-08-02T15:48:00.298Z,60.75
2022-08-02T15:52:01.902Z,60.55
2022-08-02T15:56:06.664Z,60.62
2022-08-02T16:00:18.018Z,60.03
2022-08-02T16:04:20.296Z,60.33
2022-08-02T16:08:21.873Z,60.42
2022-08-02T16:12:32.567Z,61.14
2022-08-02T16:16:36.256Z,62.50
2022-08-02T16:20:38.054Z,63.02
2022-08-02T16:24:39.894Z,63.54
2022-08-02T16:28:41.576Z,63.38
2022-08-02T16:32:43.242Z,64.19
2022-08-02T16:36:45.586Z,64.78
2022-08-02T16:40:47.204Z,64.42
2022-08-02T16:44:53.633Z,64.81
2022-08-02T16:48:56.379Z,65.03
2022-08-02T16:52:58.797Z,65.23
2022-08-02T16:57:00.853Z,65.16
2022-08-02T17:01:03.100Z,65.45
2022-08-02T17:05:13.911Z,65.36
2022-08-02T17:10:02.437Z,66.08
2022-08-02T17:13:38.113Z,65.98
2022-08-02T17:17:43.170Z,67.19
2022-08-02T17:21:44.838Z,66.69
2022-08-02T17:25:50.280Z,66.73
2022-08-02T17:29:55.280Z,67.22
2022-08-02T17:33:57.119Z,66.76
2022-08-02T17:38:00.320Z,67.35
2022-08-02T17:42:02.758Z,67.38
2022-08-02T17:46:06.537Z,67.68
2022-08-02T17:50:09.921Z,67.97
2022-08-02T17:54:18.711Z,68.98
2022-08-02T17:58:20.515Z,68.88
2022-08-02T18:02:22.205Z,69.77
2022-08-02T18:06:26.154Z,71.34
2022-08-02T18:10:28.465Z,72.26
2022-08-02T18:14:30.340Z,75.50
2022-08-02T18:18:31.991Z,75.83
2022-08-02T18:22:34.421Z,76.22
2022-08-02T18:26:37.545Z,75.87
2022-08-02T18:30:39.229Z,76.26
2022-08-02T18:34:40.807Z,76.89
2022-08-02T18:38:49.272Z,77.28
2022-08-02T18:42:50.837Z,76.59
2022-08-02T18:46:52.453Z,78.11
2022-08-02T18:50:54.226Z,79.88
2022-08-02T18:54:57.368Z,80.80
2022-08-02T18:58:58.987Z,84.05
2022-08-02T19:03:00.673Z,85.76
2022-08-02T19:07:07.673Z,86.85
2022-08-02T19:11:09.862Z,88.66
2022-08-02T19:15:13.499Z,89.64
2022-08-02T19:19:19.390Z,90.48
2022-08-02T19:23:21.210Z,91.56
2022-08-02T19:27:26.094Z,91.02
2022-08-02T19:31:34.655Z,92.99
2022-08-02T19:36:02.102Z,93.28
2022-08-02T19:40:07.906Z,91.46
2022-08-02T19:44:23.172Z,91.55
2022-08-02T19:48:30.319Z,92.68
2022-08-02T19:52:32.440Z,93.18
2022-08-02T19:56:36.295Z,93.47
2022-08-02T20:00:37.848Z,93.77
2022-08-02T20:04:42.064Z,93.96
2022-08-02T20:08:53.291Z,94.11
2022-08-02T20:13:13.154Z,94.11
2022-08-02T20:17:15.415Z,94.40
2022-08-02T20:21:36.423Z,94.95
2022-08-02T20:25:38.584Z,95.34
2022-08-02T20:29:49.926Z,95.68
2022-08-02T20:33:56.074Z,95.58
2022-08-02T20:38:02.129Z,95.98
2022-08-02T20:42:22.656Z,95.88
2022-08-02T20:46:25.671Z,95.48
2022-08-02T20:50:45.853Z,95.39
2022-08-02T20:54:51.645Z,95.09
2022-08-02T20:58:53.211Z,95.43
2022-08-02T21:02:54.773Z,95.04
2022-08-02T21:06:59.191Z,95.43
2022-08-02T21:11:01.283Z,96.37
2022-08-02T21:15:12.452Z,98.55
2022-08-02T21:19:14.200Z,98.94
2022-08-02T21:23:19.840Z,98.69
2022-08-02T21:27:52.112Z,98.20
2022-08-02T21:31:43.781Z,98.39
2022-08-02T21:35:45.433Z,98.39
2022-08-02T21:39:51.764Z,98.99
2022-08-02T21:43:58.111Z,98.30
2022-08-02T21:48:02.066Z,96.76
2022-08-02T21:52:04.483Z,96.46
2022-08-02T21:56:10.547Z,96.46
2022-08-02T22:00:12.762Z,95.17
2022-08-02T22:04:14.508Z,95.27
2022-08-02T22:08:18.001Z,93.73
2022-08-02T22:12:21.865Z,94.27
2022-08-02T22:16:27.626Z,93.73
2022-08-02T22:20:29.395Z,92.73
2022-08-02T22:24:31.056Z,90.95
2022-08-02T22:28:39.025Z,91.05
2022-08-02T22:33:15.003Z,90.25
2022-08-02T22:38:16.024Z,90.20
2022-08-02T22:42:00.904Z,90.30
2022-08-02T22:46:36.786Z,90.00
2022-08-02T22:50:38.595Z,90.39
2022-08-02T22:54:40.219Z,90.39
2022-08-02T23:03:06.677Z,90.20
2022-08-02T23:07:08.564Z,90.20
2022-08-02T23:11:10.323Z,90.69
2022-08-02T23:15:11.933Z,91.19
2022-08-02T23:19:31.888Z,91.19
2022-08-02T23:23:33.448Z,92.92
2022-08-02T23:27:35.505Z,93.66
2022-08-02T23:31:38.244Z,93.66
2022-08-02T23:35:40.146Z,93.76
2022-08-02T23:39:41.899Z,93.66
2022-08-02T23:44:03.777Z,93.16
2022-08-02T23:48:05.118Z,92.86
2022-08-02T23:52:06.747Z,93.01
2022-08-02T23:56:08.547Z,92.81
